createdAt,value
2018-09-10T00:00:04.909Z,0.00
2018-09-10T00:01:04.882Z,0.00
2018-09-10T00:02:04.852Z,0.00
2018-09-10T00:03:04.825Z,0.00
2018-09-10T00:04:04.796Z,0.00
2018-09-10T00:05:04.766Z,0.00
2018-09-10T00:06:04.738Z,0.00
2018-09-10T00:07:04.710Z,0.00
2018-09-10T00:08:04.685Z,0.00
2018-09-10T00:09:04.653Z,0.00
2018-09-10T00:10:04.625Z,0.00
2018-09-10T00:11:04.598Z,0.00
2018-09-10T00:12:04.570Z,0.00
2018-09-10T00:13:04.541Z,0.00
2018-09-10T00:14:04.518Z,0.00
2018-09-10T00:15:04.485Z,0.00
2018-09-10T00:16:04.456Z,0.00
2018-09-10T00:17:04.428Z,0.00
2018-09-10T00:18:04.401Z,0.00
2018-09-10T00:19:04.372Z,0.00
2018-09-10T00:20:04.345Z,0.00
2018-09-10T00:21:04.314Z,0.00
2018-09-10T00:22:04.288Z,0.00
2018-09-10T00:23:04.258Z,0.00
2018-09-10T00:24:04.231Z,0.00
2018-09-10T00:25:04.201Z,0.00
2018-09-10T00:26:04.175Z,0.00
2018-09-10T00:27:04.147Z,0.00
2018-09-10T00:28:04.119Z,0.00
2018-09-10T00:29:04.092Z,0.00
2018-09-10T00:30:04.062Z,0.00
2018-09-10T00:31:04.036Z,0.00
2018-09-10T00:32:04.003Z,0.00
2018-09-10T00:33:03.976Z,0.00
2018-09-10T00:34:03.947Z,0.00
2018-09-10T00:35:03.920Z,0.00
2018-09-10T00:36:03.891Z,0.00
2018-09-10T00:37:03.863Z,0.00
2018-09-10T00:38:03.836Z,0.00
2018-09-10T00:39:03.808Z,0.00
2018-09-10T00:40:03.779Z,0.00
2018-09-10T00:41:03.750Z,0.00
2018-09-10T00:42:03.733Z,0.00
2018-09-10T00:43:03.699Z,0.00
2018-09-10T00:44:03.665Z,0.00
2018-09-10T00:45:03.639Z,0.00
2018-09-10T00:46:03.611Z,0.00
2018-09-10T00:47:03.583Z,0.00
2018-09-10T00:48:03.552Z,0.00
2018-09-10T00:49:03.526Z,0.00
2018-09-10T00:50:03.495Z,0.00
2018-09-10T00:51:03.473Z,0.00
2018-09-10T00:52:03.439Z,0.00
2018-09-10T00:53:03.411Z,0.00
2018-09-10T00:54:03.382Z,0.00
2018-09-10T00:55:03.355Z,0.00
2018-09-10T00:56:03.327Z,0.00
2018-09-10T00:57:03.302Z,0.00
2018-09-10T00:58:03.269Z,0.00
2018-09-10T00:59:03.242Z,0.00
2018-09-10T01:00:03.213Z,0.00
2018-09-10T01:01:03.187Z,0.00
2018-09-10T01:02:03.156Z,0.00
2018-09-10T01:03:03.130Z,0.00
2018-09-10T01:04:03.100Z,0.00
2018-09-10T01:05:03.071Z,0.00
2018-09-10T01:06:03.044Z,0.00
2018-09-10T01:07:03.015Z,0.00
2018-09-10T01:08:02.986Z,0.00
2018-09-10T01:09:02.959Z,0.00
2018-09-10T01:10:02.938Z,0.00
2018-09-10T01:11:02.900Z,0.00
2018-09-10T01:12:02.874Z,0.00
2018-09-10T01:13:02.848Z,0.00
2018-09-10T01:14:02.817Z,0.00
2018-09-10T01:15:02.789Z,0.00
2018-09-10T01:16:02.761Z,0.00
2018-09-10T01:17:02.731Z,0.00
2018-09-10T01:18:02.704Z,0.00
2018-09-10T01:19:02.675Z,0.00
2018-09-10T01:20:02.649Z,0.00
2018-09-10T01:21:02.618Z,0.00
2018-09-10T01:22:02.596Z,0.00
2018-09-10T01:23:02.567Z,0.00
2018-09-10T01:24:02.537Z,0.00
2018-09-10T01:25:02.506Z,0.00
2018-09-10T01:26:02.479Z,0.00
2018-09-10T01:27:02.450Z,0.00
2018-09-10T01:28:02.422Z,0.00
2018-09-10T01:29:02.395Z,0.00
2018-09-10T01:30:02.370Z,0.00
2018-09-10T01:31:02.339Z,0.00
2018-09-10T01:32:02.311Z,0.00
2018-09-10T01:33:02.281Z,0.00
2018-09-10T01:34:02.254Z,0.00
2018-09-10T01:35:02.226Z,0.00
2018-09-10T01:36:02.197Z,0.00
2018-09-10T01:37:02.171Z,0.00
2018-09-10T01:38:02.141Z,0.00
2018-09-10T01:39:02.114Z,0.00
2018-09-10T01:40:02.090Z,0.00
2018-09-10T01:41:02.060Z,0.00
2018-09-10T01:42:02.029Z,0.00
2018-09-10T01:43:02.002Z,0.00
2018-09-10T01:44:01.974Z,0.00
2018-09-10T01:45:01.947Z,0.00
2018-09-10T01:46:01.919Z,0.00
2018-09-10T01:47:01.892Z,0.00
2018-09-10T01:48:01.864Z,0.00
2018-09-10T01:49:01.835Z,0.00
2018-09-10T01:50:01.806Z,0.00
2018-09-10T01:51:01.779Z,0.00
2018-09-10T01:52:01.752Z,0.00
2018-09-10T01:53:01.722Z,0.00
2018-09-10T01:54:01.696Z,0.00
2018-09-10T01:55:01.667Z,0.00
2018-09-10T01:56:01.638Z,0.00
2018-09-10T01:57:01.610Z,0.00
2018-09-10T01:58:01.583Z,0.00
2018-09-10T01:59:01.556Z,0.00
2018-09-10T02:00:01.528Z,0.00
2018-09-10T02:01:01.501Z,0.00
2018-09-10T02:02:01.472Z,0.00
2018-09-10T02:03:01.444Z,0.00
2018-09-10T02:04:01.419Z,0.00
2018-09-10T02:05:01.390Z,0.00
2018-09-10T02:06:01.362Z,0.00
2018-09-10T02:07:02.025Z,0.00
2018-09-10T02:08:01.308Z,0.00
2018-09-10T02:09:01.277Z,0.00
2018-09-10T02:10:01.251Z,0.00
2018-09-10T02:11:01.223Z,0.00
2018-09-10T02:12:01.194Z,0.00
2018-09-10T02:13:01.167Z,0.00
2018-09-10T02:14:01.140Z,0.00
2018-09-10T02:15:01.114Z,0.00
2018-09-10T02:16:01.088Z,0.00
2018-09-10T02:17:01.084Z,0.00
2018-09-10T02:18:01.030Z,0.00
2018-09-10T02:19:01.007Z,0.00
2018-09-10T02:20:00.973Z,0.00
2018-09-10T02:21:00.946Z,0.00
2018-09-10T02:22:00.918Z,0.00
2018-09-10T02:23:00.891Z,0.00
2018-09-10T02:24:00.863Z,0.00
2018-09-10T02:25:00.835Z,0.00
2018-09-10T02:26:00.807Z,0.00
2018-09-10T02:27:00.780Z,0.00
2018-09-10T02:28:00.754Z,0.00
2018-09-10T02:29:00.725Z,0.00
2018-09-10T02:30:00.698Z,0.00
2018-09-10T02:31:00.672Z,0.00
2018-09-10T02:32:00.647Z,0.00
2018-09-10T02:33:00.614Z,0.00
2018-09-10T02:34:00.588Z,0.00
2018-09-10T02:35:00.561Z,0.00
2018-09-10T02:36:00.533Z,0.00
2018-09-10T02:37:00.505Z,0.00
2018-09-10T02:38:00.477Z,0.00
2018-09-10T02:39:00.449Z,0.00
2018-09-10T02:40:00.422Z,0.00
2018-09-10T02:41:00.393Z,0.00
2018-09-10T02:42:00.367Z,0.00
2018-09-10T02:43:00.338Z,0.00
2018-09-10T02:44:00.313Z,0.00
2018-09-10T02:45:00.284Z,0.00
2018-09-10T02:46:00.257Z,0.00
2018-09-10T02:47:00.230Z,0.00
2018-09-10T02:48:00.201Z,0.00
2018-09-10T02:49:00.179Z,0.00
2018-09-10T02:50:00.145Z,0.00
2018-09-10T02:51:00.119Z,0.00
2018-09-10T02:52:00.092Z,0.00
2018-09-10T02:53:00.065Z,0.00
2018-09-10T02:54:00.036Z,0.00
2018-09-10T02:55:00.061Z,0.00
2018-09-10T02:55:59.984Z,0.00
2018-09-10T02:56:59.953Z,0.00
2018-09-10T02:57:59.926Z,0.00
2018-09-10T02:58:59.900Z,0.00
2018-09-10T02:59:59.871Z,0.00
2018-09-10T03:00:59.845Z,0.00
2018-09-10T03:01:59.815Z,0.00
2018-09-10T03:02:59.788Z,0.00
2018-09-10T03:03:59.761Z,0.00
2018-09-10T03:04:59.732Z,0.00
2018-09-10T03:05:59.706Z,0.00
2018-09-10T03:06:59.676Z,0.00
2018-09-10T03:07:59.650Z,0.00
2018-09-10T03:08:59.623Z,0.00
2018-09-10T03:09:59.599Z,0.00
2018-09-10T03:10:59.567Z,0.00
2018-09-10T03:11:59.541Z,0.00
2018-09-10T03:12:59.513Z,0.00
2018-09-10T03:13:59.485Z,0.00
2018-09-10T03:14:59.458Z,0.00
2018-09-10T03:15:59.434Z,0.00
2018-09-10T03:16:59.406Z,0.00
2018-09-10T03:17:59.388Z,0.00
2018-09-10T03:18:59.347Z,0.00
2018-09-10T03:19:59.328Z,0.00
2018-09-10T03:20:59.292Z,0.00
2018-09-10T03:21:59.265Z,0.00
2018-09-10T03:22:59.238Z,0.00
2018-09-10T03:23:59.246Z,0.00
2018-09-10T03:24:59.182Z,0.00
2018-09-10T03:25:59.156Z,0.00
2018-09-10T03:26:59.130Z,0.00
2018-09-10T03:27:59.101Z,0.00
2018-09-10T03:28:59.072Z,0.00
2018-09-10T03:29:59.046Z,0.00
2018-09-10T03:30:59.018Z,0.00
2018-09-10T03:31:58.991Z,0.00
2018-09-10T03:32:58.961Z,0.00
2018-09-10T03:33:58.942Z,0.00
2018-09-10T03:34:58.909Z,0.00
2018-09-10T03:35:59.542Z,0.00
2018-09-10T03:36:58.852Z,0.00
2018-09-10T03:37:58.823Z,0.00
2018-09-10T03:38:58.798Z,0.00
2018-09-10T03:39:58.769Z,0.00
2018-09-10T03:40:58.742Z,0.00
2018-09-10T03:41:58.715Z,0.00
2018-09-10T03:42:58.690Z,0.00
2018-09-10T03:43:58.659Z,0.00
2018-09-10T03:44:58.631Z,0.00
2018-09-10T03:45:58.605Z,0.00
2018-09-10T03:46:58.577Z,0.00
2018-09-10T03:47:58.550Z,0.00
2018-09-10T03:48:58.521Z,0.00
2018-09-10T03:49:58.494Z,0.00
2018-09-10T03:50:58.468Z,0.00
2018-09-10T03:51:58.441Z,0.00
2018-09-10T03:52:58.413Z,0.00
2018-09-10T03:53:58.386Z,0.00
2018-09-10T03:54:58.360Z,0.00
2018-09-10T03:55:58.331Z,0.00
2018-09-10T03:56:58.319Z,0.00
2018-09-10T03:57:58.279Z,0.00
2018-09-10T03:58:58.248Z,0.00
2018-09-10T03:59:58.221Z,0.00
2018-09-10T04:00:58.193Z,0.00
2018-09-10T04:01:58.166Z,0.00
2018-09-10T04:02:58.138Z,0.00
2018-09-10T04:03:58.111Z,0.00
2018-09-10T04:04:58.082Z,0.00
2018-09-10T04:05:58.058Z,0.00
2018-09-10T04:06:58.027Z,0.00
2018-09-10T04:07:58.001Z,0.00
2018-09-10T04:08:57.972Z,0.00
2018-09-10T04:09:57.946Z,0.00
2018-09-10T04:10:57.918Z,0.00
2018-09-10T04:11:57.891Z,0.00
2018-09-10T04:12:57.865Z,0.00
2018-09-10T04:13:57.837Z,0.00
2018-09-10T04:14:57.810Z,0.00
2018-09-10T04:15:57.781Z,0.00
2018-09-10T04:16:57.753Z,0.00
2018-09-10T04:17:57.726Z,0.00
2018-09-10T04:18:57.699Z,0.00
2018-09-10T04:19:57.672Z,0.00
2018-09-10T04:20:57.645Z,0.00
2018-09-10T04:21:57.620Z,0.00
2018-09-10T04:22:57.589Z,0.00
2018-09-10T04:23:57.562Z,0.00
2018-09-10T04:24:57.532Z,0.00
2018-09-10T04:25:57.554Z,0.00
2018-09-10T04:26:57.478Z,0.00
2018-09-10T04:27:57.451Z,0.00
2018-09-10T04:28:57.423Z,0.00
2018-09-10T04:29:57.401Z,0.00
2018-09-10T04:30:57.371Z,0.00
2018-09-10T04:31:57.341Z,0.00
2018-09-10T04:32:57.314Z,0.00
2018-09-10T04:33:57.290Z,0.00
2018-09-10T04:34:57.259Z,0.00
2018-09-10T04:35:57.257Z,0.00
2018-09-10T04:36:57.204Z,0.00
2018-09-10T04:37:57.175Z,0.00
2018-09-10T04:38:57.152Z,0.00
2018-09-10T04:39:57.123Z,0.00
2018-09-10T04:40:57.094Z,0.00
2018-09-10T04:41:57.069Z,0.00
2018-09-10T04:42:57.040Z,0.00
2018-09-10T04:43:57.012Z,0.00
2018-09-10T04:44:56.984Z,0.00
2018-09-10T04:45:56.958Z,0.00
2018-09-10T04:46:56.929Z,0.00
2018-09-10T04:47:56.902Z,0.00
2018-09-10T04:48:56.873Z,0.00
2018-09-10T04:49:56.851Z,0.00
2018-09-10T04:50:56.822Z,0.00
2018-09-10T04:51:56.791Z,0.00
2018-09-10T04:52:56.764Z,0.00
2018-09-10T04:53:56.739Z,0.00
2018-09-10T04:54:56.710Z,0.00
2018-09-10T04:55:56.682Z,0.00
2018-09-10T04:56:56.652Z,0.00
2018-09-10T04:57:56.680Z,0.00
2018-09-10T04:58:56.600Z,0.00
2018-09-10T04:59:56.572Z,0.00
2018-09-10T05:01:04.463Z,0.00
2018-09-10T05:02:49.671Z,0.00
2018-09-10T05:03:49.617Z,0.00
2018-09-10T05:05:42.724Z,0.00
2018-09-10T05:06:42.690Z,0.00
2018-09-10T05:08:35.521Z,0.00
2018-09-10T05:09:35.469Z,0.00
2018-09-10T05:11:29.093Z,0.00
2018-09-10T05:12:29.872Z,0.00
2018-09-10T05:14:22.650Z,0.00
2018-09-10T05:15:22.618Z,0.00
2018-09-10T05:17:16.521Z,0.00
2018-09-10T05:18:15.893Z,0.00
2018-09-10T05:20:09.526Z,0.00
2018-09-10T05:21:09.464Z,0.00
2018-09-10T05:23:02.275Z,0.00
2018-09-10T05:24:02.242Z,0.00
2018-09-10T05:25:55.366Z,0.00
2018-09-10T05:26:55.313Z,0.00
2018-09-10T05:28:48.127Z,0.00
2018-09-10T05:29:48.096Z,0.00
2018-09-10T05:31:41.423Z,0.00
2018-09-10T05:32:41.368Z,0.00
2018-09-10T05:34:34.474Z,0.00
2018-09-10T05:35:34.444Z,0.00
2018-09-10T05:37:27.870Z,0.00
2018-09-10T05:38:27.815Z,0.00
2018-09-10T05:40:20.917Z,0.00
2018-09-10T05:41:20.890Z,0.00
2018-09-10T05:43:14.028Z,0.00
2018-09-10T05:44:13.965Z,0.00
2018-09-10T05:46:07.077Z,0.00
2018-09-10T05:47:07.046Z,0.00
2018-09-10T05:48:59.882Z,0.00
2018-09-10T05:49:59.828Z,0.00
2018-09-10T05:51:53.157Z,0.00
2018-09-10T05:52:53.104Z,0.00
2018-09-10T05:54:45.941Z,0.00
2018-09-10T05:55:45.886Z,0.00
2018-09-10T05:57:39.196Z,0.00
2018-09-10T05:58:39.163Z,0.00
2018-09-10T06:00:32.491Z,0.00
2018-09-10T06:01:32.440Z,0.09
2018-09-10T06:03:25.772Z,1.15
2018-09-10T06:04:26.347Z,0.76
2018-09-10T06:06:19.336Z,5.18
2018-09-10T06:07:19.047Z,7.67
2018-09-10T06:08:20.619Z,13.62
2018-09-10T06:09:20.679Z,14.20
2018-09-10T06:10:18.773Z,15.16
2018-09-10T06:11:19.021Z,16.50
2018-09-10T06:13:19.075Z,20.44
2018-09-10T06:15:18.585Z,30.15
2018-09-10T06:16:18.561Z,34.28
2018-09-10T06:17:18.534Z,31.21
2018-09-10T06:18:18.758Z,33.61
2018-09-10T06:19:18.480Z,37.07
2018-09-10T06:20:18.462Z,37.45
2018-09-10T06:21:18.437Z,38.12
2018-09-10T06:22:18.408Z,38.79
2018-09-10T06:23:18.384Z,39.29
2018-09-10T06:24:18.358Z,41.49
2018-09-10T06:25:18.335Z,40.55
2018-09-10T06:26:18.305Z,44.20
2018-09-10T06:27:18.329Z,42.37
2018-09-10T06:28:18.259Z,47.08
2018-09-10T06:29:18.236Z,45.35
2018-09-10T06:30:18.269Z,46.50
2018-09-10T06:31:18.189Z,48.81
2018-09-10T06:32:18.158Z,51.04
2018-09-10T06:33:18.135Z,52.39
2018-09-10T06:34:18.193Z,55.85
2018-09-10T06:35:18.089Z,57.20
2018-09-10T06:36:18.063Z,58.73
2018-09-10T06:37:18.159Z,59.31
2018-09-10T06:38:18.014Z,60.17
2018-09-10T06:39:17.986Z,61.52
2018-09-10T06:40:17.965Z,62.87
2018-09-10T06:41:17.939Z,64.15
2018-09-10T06:42:17.915Z,63.67
2018-09-10T06:43:17.891Z,63.57
2018-09-10T06:44:18.809Z,66.36
2018-09-10T06:45:17.842Z,65.59
2018-09-10T06:46:17.820Z,67.80
2018-09-10T06:47:17.798Z,58.28
2018-09-10T06:48:17.770Z,48.66
2018-09-10T06:49:18.648Z,67.32
2018-09-10T06:50:17.724Z,67.13
2018-09-10T06:51:17.699Z,68.38
2018-09-10T06:52:17.679Z,70.01
2018-09-10T06:53:17.711Z,69.15
2018-09-10T06:54:17.628Z,67.22
2018-09-10T06:55:17.604Z,68.57
2018-09-10T06:56:17.581Z,69.06
2018-09-10T06:57:17.560Z,68.19
2018-09-10T06:58:17.535Z,69.53
2018-09-10T06:59:17.510Z,69.67
2018-09-10T07:00:17.501Z,69.67
2018-09-10T07:01:17.466Z,70.62
2018-09-10T07:02:17.442Z,70.62
2018-09-10T07:03:17.415Z,71.59
2018-09-10T07:04:17.393Z,74.29
2018-09-10T07:05:17.373Z,75.24
2018-09-10T07:06:17.351Z,73.55
2018-09-10T07:07:17.322Z,74.03
2018-09-10T07:08:17.301Z,75.48
2018-09-10T07:09:17.277Z,74.51
2018-09-10T07:10:17.257Z,77.21
2018-09-10T07:11:17.230Z,75.09
2018-09-10T07:12:18.138Z,76.44
2018-09-10T07:13:17.182Z,74.61
2018-09-10T07:14:17.222Z,75.42
2018-09-10T07:15:17.138Z,75.23
2018-09-10T07:16:17.115Z,77.73
2018-09-10T07:17:17.092Z,78.50
2018-09-10T07:18:17.069Z,77.53
2018-09-10T07:19:17.047Z,77.53
2018-09-10T07:20:17.023Z,78.50
2018-09-10T07:21:17.001Z,75.32
2018-09-10T07:22:16.978Z,77.28
2018-09-10T07:23:16.958Z,78.21
2018-09-10T07:24:16.933Z,77.38
2018-09-10T07:25:16.913Z,76.61
2018-09-10T07:26:16.892Z,78.54
2018-09-10T07:27:16.866Z,76.90
2018-09-10T07:28:16.843Z,77.67
2018-09-10T07:29:16.821Z,78.09
2018-09-10T07:30:16.819Z,78.77
2018-09-10T07:31:18.159Z,77.81
2018-09-10T07:32:17.701Z,78.19
2018-09-10T07:33:17.640Z,77.61
2018-09-10T07:34:16.709Z,77.42
2018-09-10T07:35:16.688Z,77.90
2018-09-10T07:36:16.665Z,76.93
2018-09-10T07:37:16.647Z,77.42
2018-09-10T07:38:16.623Z,78.77
2018-09-10T07:39:16.602Z,77.81
2018-09-10T07:40:16.579Z,78.48
2018-09-10T07:41:16.559Z,76.75
2018-09-10T07:42:16.580Z,77.23
2018-09-10T07:43:16.515Z,77.71
2018-09-10T07:44:17.243Z,77.36
2018-09-10T07:45:16.474Z,77.36
2018-09-10T07:46:17.153Z,76.10
2018-09-10T07:47:16.427Z,77.55
2018-09-10T07:48:16.409Z,77.26
2018-09-10T07:49:16.384Z,77.07
2018-09-10T07:50:16.385Z,77.50
2018-09-10T07:51:16.450Z,77.75
2018-09-10T07:52:16.738Z,78.17
2018-09-10T07:53:16.371Z,79.24
2018-09-10T07:54:16.281Z,79.14
2018-09-10T07:55:16.260Z,79.33
2018-09-10T07:56:16.273Z,78.17
2018-09-10T07:57:16.217Z,78.75
2018-09-10T07:58:16.224Z,78.27
2018-09-10T07:59:16.177Z,78.46
2018-09-10T08:00:16.155Z,79.04
2018-09-10T08:01:16.138Z,77.50
2018-09-10T08:02:16.114Z,79.24
2018-09-10T08:03:16.093Z,77.55
2018-09-10T08:04:16.068Z,77.69
2018-09-10T08:05:16.051Z,77.98
2018-09-10T08:06:16.032Z,77.59
2018-09-10T08:07:16.010Z,78.36
2018-09-10T08:08:15.990Z,77.59
2018-09-10T08:09:17.725Z,78.56
2018-09-10T08:10:15.952Z,78.36
2018-09-10T08:11:15.927Z,77.59
2018-09-10T08:12:15.908Z,78.08
2018-09-10T08:13:15.888Z,78.56
2018-09-10T08:14:15.867Z,78.75
2018-09-10T08:15:15.845Z,78.31
2018-09-10T08:16:15.824Z,78.59
2018-09-10T08:17:15.803Z,78.59
2018-09-10T08:18:15.787Z,77.63
2018-09-10T08:19:15.762Z,77.73
2018-09-10T08:20:15.742Z,78.11
2018-09-10T08:21:15.722Z,78.21
2018-09-10T08:22:15.702Z,77.57
2018-09-10T08:23:15.677Z,78.54
2018-09-10T08:24:15.766Z,77.76
2018-09-10T08:25:15.658Z,77.92
2018-09-10T08:26:15.621Z,78.06
2018-09-10T08:27:15.601Z,77.57
2018-09-10T08:28:15.581Z,77.86
2018-09-10T08:29:15.560Z,77.57
2018-09-10T08:30:15.572Z,77.57
2018-09-10T08:31:15.523Z,77.09
2018-09-10T08:32:15.501Z,76.93
2018-09-10T08:33:15.481Z,76.55
2018-09-10T08:34:15.462Z,77.22
2018-09-10T08:35:15.446Z,77.32
2018-09-10T08:36:15.421Z,77.42
2018-09-10T08:37:15.402Z,76.42
2018-09-10T08:38:15.381Z,77.28
2018-09-10T08:39:15.363Z,77.22
2018-09-10T08:40:15.343Z,76.70
2018-09-10T08:41:15.322Z,77.09
2018-09-10T08:42:15.305Z,76.32
2018-09-10T08:43:16.161Z,76.61
2018-09-10T08:44:15.265Z,76.12
2018-09-10T08:45:15.246Z,76.70
2018-09-10T08:46:15.228Z,76.67
2018-09-10T08:47:15.206Z,77.09
2018-09-10T08:48:16.509Z,77.38
2018-09-10T08:49:15.167Z,77.00
2018-09-10T08:50:15.148Z,77.19
2018-09-10T08:51:15.710Z,76.80
2018-09-10T08:52:16.674Z,76.12
2018-09-10T08:53:15.091Z,76.61
2018-09-10T08:54:15.184Z,77.00
2018-09-10T08:55:15.309Z,76.70
2018-09-10T08:56:15.500Z,77.00
2018-09-10T08:57:15.012Z,77.22
2018-09-10T08:58:14.993Z,77.42
2018-09-10T08:59:14.971Z,76.74
2018-09-10T09:00:14.957Z,76.93
2018-09-10T09:01:15.665Z,75.93
2018-09-10T09:02:14.915Z,76.93
2018-09-10T09:03:14.892Z,77.09
2018-09-10T09:04:14.882Z,76.93
2018-09-10T09:05:14.856Z,76.55
2018-09-10T09:06:15.659Z,76.93
2018-09-10T09:07:14.816Z,76.61
2018-09-10T09:08:14.797Z,76.90
2018-09-10T09:09:14.782Z,76.42
2018-09-10T09:10:14.758Z,76.51
2018-09-10T09:11:14.739Z,76.70
2018-09-10T09:12:14.717Z,76.51
2018-09-10T09:13:14.697Z,77.19
2018-09-10T09:14:14.679Z,76.61
2018-09-10T09:15:14.658Z,76.22
2018-09-10T09:16:14.640Z,76.55
2018-09-10T09:17:14.619Z,76.84
2018-09-10T09:18:14.600Z,76.35
2018-09-10T09:19:14.581Z,77.03
2018-09-10T09:20:14.561Z,76.45
2018-09-10T09:21:14.542Z,77.03
2018-09-10T09:22:14.524Z,76.39
2018-09-10T09:23:14.586Z,77.17
2018-09-10T09:24:14.532Z,76.78
2018-09-10T09:25:14.463Z,77.07
2018-09-10T09:26:14.443Z,76.39
2018-09-10T09:27:14.424Z,76.20
2018-09-10T09:28:14.407Z,75.81
2018-09-10T09:29:14.391Z,76.20
2018-09-10T09:30:14.389Z,76.20
2018-09-10T09:31:14.348Z,76.20
2018-09-10T09:32:14.329Z,76.04
2018-09-10T09:33:14.308Z,76.14
2018-09-10T09:34:14.290Z,75.85
2018-09-10T09:35:14.271Z,75.75
2018-09-10T09:36:14.276Z,75.56
2018-09-10T09:37:14.233Z,75.85
2018-09-10T09:38:14.214Z,74.69
2018-09-10T09:39:14.193Z,74.94
2018-09-10T09:40:14.176Z,74.46
2018-09-10T09:41:14.157Z,73.10
2018-09-10T09:42:14.143Z,73.88
2018-09-10T09:43:14.180Z,73.78
2018-09-10T09:44:14.105Z,73.91
2018-09-10T09:45:14.081Z,73.72
2018-09-10T09:46:14.062Z,74.30
2018-09-10T09:47:14.043Z,74.01
2018-09-10T09:48:14.026Z,74.85
2018-09-10T09:49:14.004Z,74.75
2018-09-10T09:50:13.985Z,74.75
2018-09-10T09:51:14.012Z,74.11
2018-09-10T09:52:13.948Z,73.72
2018-09-10T09:53:13.926Z,73.27
2018-09-10T09:54:13.911Z,72.60
2018-09-10T09:55:13.896Z,72.79
2018-09-10T09:56:13.869Z,71.37
2018-09-10T09:57:13.853Z,70.31
2018-09-10T09:58:13.837Z,70.37
2018-09-10T09:59:13.819Z,70.50
2018-09-10T10:00:13.795Z,70.60
2018-09-10T10:01:13.783Z,71.34
2018-09-10T10:02:13.759Z,71.92
2018-09-10T10:03:13.740Z,71.95
2018-09-10T10:04:13.786Z,70.21
2018-09-10T10:05:13.705Z,69.63
2018-09-10T10:06:13.689Z,70.01
2018-09-10T10:07:13.672Z,69.92
2018-09-10T10:08:13.646Z,69.24
2018-09-10T10:09:13.631Z,69.82
2018-09-10T10:10:13.651Z,68.53
2018-09-10T10:11:13.631Z,68.82
2018-09-10T10:12:13.658Z,69.21
2018-09-10T10:13:13.554Z,69.40
2018-09-10T10:14:13.539Z,69.27
2018-09-10T10:15:13.519Z,69.95
2018-09-10T10:16:13.537Z,68.49
2018-09-10T10:17:13.482Z,69.37
2018-09-10T10:18:13.489Z,69.33
2018-09-10T10:19:13.445Z,70.30
2018-09-10T10:20:13.424Z,70.10
2018-09-10T10:21:13.411Z,70.88
2018-09-10T10:22:13.389Z,70.20
2018-09-10T10:23:13.371Z,69.62
2018-09-10T10:24:13.352Z,69.62
2018-09-10T10:25:13.334Z,70.10
2018-09-10T10:26:13.313Z,70.14
2018-09-10T10:27:13.297Z,70.34
2018-09-10T10:28:14.243Z,70.24
2018-09-10T10:29:13.256Z,70.50
2018-09-10T10:30:13.239Z,70.53
2018-09-10T10:31:13.223Z,70.82
2018-09-10T10:32:15.182Z,71.11
2018-09-10T10:33:13.183Z,71.11
2018-09-10T10:34:13.164Z,71.40
2018-09-10T10:35:13.143Z,71.78
2018-09-10T10:36:13.122Z,71.88
2018-09-10T10:37:13.106Z,71.40
2018-09-10T10:38:13.085Z,71.69
2018-09-10T10:39:13.125Z,70.92
2018-09-10T10:40:13.052Z,71.20
2018-09-10T10:41:13.028Z,71.59
2018-09-10T10:42:13.011Z,71.30
2018-09-10T10:43:12.991Z,71.01
2018-09-10T10:44:12.971Z,70.56
2018-09-10T10:45:12.953Z,70.37
2018-09-10T10:46:12.934Z,69.98
2018-09-10T10:47:12.911Z,69.40
2018-09-10T10:48:12.900Z,69.15
2018-09-10T10:49:12.870Z,68.85
2018-09-10T10:50:12.859Z,68.66
2018-09-10T10:51:12.844Z,68.85
2018-09-10T10:52:12.823Z,68.95
2018-09-10T10:53:12.801Z,68.70
2018-09-10T10:54:12.787Z,69.47
2018-09-10T10:55:12.764Z,68.79
2018-09-10T10:56:12.746Z,67.34
2018-09-10T10:57:12.735Z,67.34
2018-09-10T10:58:12.713Z,66.56
2018-09-10T10:59:12.692Z,65.01
2018-09-10T11:00:12.677Z,64.82
2018-09-10T11:01:12.660Z,65.69
2018-09-10T11:02:12.639Z,63.82
2018-09-10T11:03:12.619Z,64.50
2018-09-10T11:04:12.616Z,63.82
2018-09-10T11:05:12.583Z,64.59
2018-09-10T11:06:12.565Z,64.79
2018-09-10T11:07:12.552Z,64.30
2018-09-10T11:08:13.199Z,64.69
2018-09-10T11:09:12.520Z,64.79
2018-09-10T11:10:12.491Z,64.98
2018-09-10T11:11:12.472Z,65.95
2018-09-10T11:12:12.452Z,64.82
2018-09-10T11:13:12.434Z,64.98
2018-09-10T11:14:12.418Z,64.04
2018-09-10T11:15:12.399Z,65.27
2018-09-10T11:16:12.381Z,64.72
2018-09-10T11:17:12.362Z,64.30
2018-09-10T11:18:12.342Z,64.04
2018-09-10T11:19:12.325Z,63.46
2018-09-10T11:20:12.309Z,63.85
2018-09-10T11:21:12.289Z,64.72
2018-09-10T11:22:12.314Z,64.62
2018-09-10T11:23:12.251Z,64.92
2018-09-10T11:24:13.202Z,64.53
2018-09-10T11:25:12.214Z,63.65
2018-09-10T11:26:12.197Z,64.24
2018-09-10T11:27:12.221Z,64.24
2018-09-10T11:28:12.159Z,64.98
2018-09-10T11:29:12.145Z,64.69
2018-09-10T11:30:12.132Z,65.34
2018-09-10T11:31:12.106Z,66.11
2018-09-10T11:32:12.087Z,66.78
2018-09-10T11:33:12.067Z,67.95
2018-09-10T11:34:12.050Z,68.73
2018-09-10T11:35:12.033Z,68.82
2018-09-10T11:36:12.011Z,69.11
2018-09-10T11:37:11.991Z,69.59
2018-09-10T11:38:11.976Z,68.79
2018-09-10T11:39:11.954Z,67.82
2018-09-10T11:40:11.938Z,68.49
2018-09-10T11:41:11.918Z,69.08
2018-09-10T11:42:11.900Z,69.85
2018-09-10T11:43:11.877Z,69.79
2018-09-10T11:44:11.859Z,69.40
2018-09-10T11:45:11.845Z,69.69
2018-09-10T11:46:11.824Z,70.27
2018-09-10T11:47:11.801Z,69.31
2018-09-10T11:48:11.783Z,69.24
2018-09-10T11:49:11.764Z,67.88
2018-09-10T11:50:11.745Z,66.92
2018-09-10T11:51:11.725Z,67.02
2018-09-10T11:52:11.707Z,67.24
2018-09-10T11:53:11.688Z,66.37
2018-09-10T11:54:11.668Z,65.79
2018-09-10T11:55:11.649Z,65.40
2018-09-10T11:56:11.629Z,66.27
2018-09-10T11:57:11.609Z,65.79
2018-09-10T11:58:11.592Z,66.56
2018-09-10T11:59:11.572Z,66.47
2018-09-10T12:00:11.555Z,66.17
2018-09-10T12:01:11.537Z,65.89
2018-09-10T12:02:11.591Z,65.79
2018-09-10T12:03:11.500Z,65.89
2018-09-10T12:04:11.493Z,65.11
2018-09-10T12:05:11.459Z,66.56
2018-09-10T12:06:11.441Z,65.24
2018-09-10T12:07:11.425Z,64.95
2018-09-10T12:08:11.404Z,65.24
2018-09-10T12:09:11.386Z,64.75
2018-09-10T12:10:11.371Z,65.34
2018-09-10T12:11:11.352Z,66.20
2018-09-10T12:12:11.330Z,66.30
2018-09-10T12:13:11.313Z,67.14
2018-09-10T12:14:11.295Z,65.59
2018-09-10T12:15:11.281Z,66.37
2018-09-10T12:16:11.260Z,65.01
2018-09-10T12:17:11.243Z,64.92
2018-09-10T12:18:11.232Z,65.79
2018-09-10T12:19:11.205Z,65.01
2018-09-10T12:20:11.185Z,64.14
2018-09-10T12:21:11.171Z,63.85
2018-09-10T12:22:11.160Z,64.04
2018-09-10T12:23:11.132Z,64.62
2018-09-10T12:24:11.117Z,64.07
2018-09-10T12:25:11.098Z,64.17
2018-09-10T12:26:11.076Z,62.75
2018-09-10T12:27:11.059Z,62.26
2018-09-10T12:28:11.042Z,60.42
2018-09-10T12:29:11.026Z,59.55
2018-09-10T12:30:11.007Z,59.48
2018-09-10T12:31:10.991Z,58.15
2018-09-10T12:32:10.970Z,57.18
2018-09-10T12:33:10.951Z,57.37
2018-09-10T12:34:10.937Z,57.86
2018-09-10T12:35:10.924Z,57.44
2018-09-10T12:36:10.901Z,58.22
2018-09-10T12:37:10.884Z,58.58
2018-09-10T12:38:10.866Z,58.51
2018-09-10T12:39:10.849Z,58.09
2018-09-10T12:40:10.832Z,59.42
2018-09-10T12:41:10.813Z,59.78
2018-09-10T12:42:10.798Z,60.10
2018-09-10T12:43:10.781Z,59.52
2018-09-10T12:44:10.764Z,58.87
2018-09-10T12:45:10.746Z,58.09
2018-09-10T12:46:10.728Z,58.39
2018-09-10T12:47:10.712Z,58.80
2018-09-10T12:48:10.694Z,58.12
2018-09-10T12:49:10.682Z,57.67
2018-09-10T12:50:10.661Z,56.89
2018-09-10T12:51:10.642Z,57.37
2018-09-10T12:52:10.625Z,56.98
2018-09-10T12:53:10.610Z,56.98
2018-09-10T12:54:10.591Z,57.86
2018-09-10T12:55:10.573Z,57.37
2018-09-10T12:56:10.558Z,57.64
2018-09-10T12:57:10.545Z,57.54
2018-09-10T12:58:10.524Z,54.92
2018-09-10T12:59:10.504Z,56.47
2018-09-10T13:00:10.490Z,56.18
2018-09-10T13:01:10.475Z,57.22
2018-09-10T13:02:10.455Z,57.32
2018-09-10T13:03:10.441Z,57.97
2018-09-10T13:04:10.479Z,58.36
2018-09-10T13:05:10.406Z,58.91
2018-09-10T13:06:10.389Z,59.49
2018-09-10T13:07:10.368Z,60.36
2018-09-10T13:08:10.355Z,61.91
2018-09-10T13:09:10.335Z,61.62
2018-09-10T13:10:10.317Z,62.10
2018-09-10T13:11:10.298Z,63.17
2018-09-10T13:12:10.281Z,64.14
2018-09-10T13:13:10.278Z,65.11
2018-09-10T13:14:10.245Z,64.89
2018-09-10T13:15:10.230Z,65.17
2018-09-10T13:16:10.217Z,64.92
2018-09-10T13:17:10.192Z,65.20
2018-09-10T13:18:10.177Z,63.75
2018-09-10T13:19:10.157Z,63.62
2018-09-10T13:20:10.139Z,63.65
2018-09-10T13:21:10.122Z,63.65
2018-09-10T13:22:10.103Z,64.59
2018-09-10T13:23:10.084Z,63.72
2018-09-10T13:24:10.064Z,63.82
2018-09-10T13:25:10.049Z,65.17